createdAt,value
2019-02-10T00:00:59.518Z,-3.80
2019-02-10T00:03:27.815Z,-3.83
2019-02-10T00:05:56.113Z,-3.75
2019-02-10T00:08:24.378Z,-3.69
2019-02-10T00:10:52.638Z,-3.69
2019-02-10T00:13:34.252Z,-3.75
2019-02-10T00:16:05.844Z,-3.78
2019-02-10T00:18:35.976Z,-3.75
2019-02-10T00:21:04.277Z,-3.66
2019-02-10T00:23:32.542Z,-3.61
2019-02-10T00:26:00.973Z,-3.73
2019-02-10T00:28:29.315Z,-3.83
2019-02-10T00:30:57.585Z,-3.86
2019-02-10T00:33:25.876Z,-3.81
2019-02-10T00:35:54.140Z,-3.76
2019-02-10T00:38:22.429Z,-3.81
2019-02-10T00:40:50.696Z,-3.88
2019-02-10T00:43:19.028Z,-3.91
2019-02-10T00:45:47.273Z,-3.96
2019-02-10T00:48:15.542Z,-3.97
2019-02-10T00:50:43.840Z,-3.95
2019-02-10T00:53:12.105Z,-3.97
2019-02-10T00:55:40.403Z,-4.01
2019-02-10T00:58:08.672Z,-4.02
2019-02-10T01:00:36.976Z,-4.01
2019-02-10T01:03:05.303Z,-4.03
2019-02-10T01:05:33.569Z,-4.08
2019-02-10T01:08:01.849Z,-4.11
2019-02-10T01:10:30.296Z,-4.18
2019-02-10T01:12:58.573Z,-4.16
2019-02-10T01:15:26.869Z,-4.16
2019-02-10T01:17:55.128Z,-4.23
2019-02-10T01:20:23.454Z,-4.31
2019-02-10T01:22:51.714Z,-4.35
2019-02-10T01:25:19.972Z,-4.36
2019-02-10T01:27:48.298Z,-4.39
2019-02-10T01:30:16.631Z,-4.43
2019-02-10T01:32:44.894Z,-4.36
2019-02-10T01:35:13.664Z,-4.33
2019-02-10T01:37:41.951Z,-4.37
2019-02-10T01:40:10.843Z,-4.41
2019-02-10T01:42:39.131Z,-4.45
2019-02-10T01:45:09.931Z,-4.49
2019-02-10T01:47:38.258Z,-4.52
2019-02-10T01:50:08.857Z,-4.52
2019-02-10T01:52:37.123Z,-4.57
2019-02-10T01:55:08.052Z,-4.58
2019-02-10T01:57:36.315Z,-4.62
2019-02-10T02:00:08.017Z,-4.60
2019-02-10T02:02:36.277Z,-4.57
2019-02-10T02:05:06.407Z,-4.52
2019-02-10T02:07:34.668Z,-4.44
2019-02-10T02:10:02.921Z,-4.51
2019-02-10T02:12:31.221Z,-4.44
2019-02-10T02:14:59.506Z,-4.41
2019-02-10T02:17:27.809Z,-4.36
2019-02-10T02:19:56.080Z,-4.22
2019-02-10T02:22:24.381Z,-4.09
2019-02-10T02:24:52.638Z,-4.01
2019-02-10T02:27:20.924Z,-3.99
2019-02-10T02:29:49.234Z,-3.93
2019-02-10T02:32:17.489Z,-3.89
2019-02-10T02:34:45.771Z,-3.82
2019-02-10T02:37:14.066Z,-3.72
2019-02-10T02:39:42.323Z,-3.76
2019-02-10T02:42:10.616Z,-3.74
2019-02-10T02:44:38.948Z,-3.67
2019-02-10T02:47:07.204Z,-3.62
2019-02-10T02:49:35.463Z,-3.57
2019-02-10T02:52:03.735Z,-3.52
2019-02-10T02:54:31.998Z,-3.45
2019-02-10T02:57:00.272Z,-3.44
2019-02-10T02:59:28.548Z,-3.44
2019-02-10T03:01:56.814Z,-3.37
2019-02-10T03:04:25.106Z,-3.30
2019-02-10T03:06:53.406Z,-3.28
2019-02-10T03:09:21.776Z,-3.24
2019-02-10T03:11:50.036Z,-3.19
2019-02-10T03:14:18.307Z,-3.13
2019-02-10T03:16:46.601Z,-3.09
2019-02-10T03:19:14.875Z,-3.00
2019-02-10T03:21:43.138Z,-2.97
2019-02-10T03:24:11.427Z,-2.94
2019-02-10T03:26:39.711Z,-2.90
2019-02-10T03:29:07.996Z,-2.83
2019-02-10T03:31:36.268Z,-2.81
2019-02-10T03:34:04.780Z,-2.78
2019-02-10T03:36:33.033Z,-2.73
2019-02-10T03:39:01.306Z,-2.74
2019-02-10T03:41:29.606Z,-2.71
2019-02-10T03:43:57.879Z,-2.67
2019-02-10T03:46:26.133Z,-2.61
2019-02-10T03:48:54.426Z,-2.58
2019-02-10T03:51:22.685Z,-2.56
2019-02-10T03:53:50.958Z,-2.51
2019-02-10T03:56:19.226Z,-2.48
2019-02-10T03:58:47.602Z,-2.51
2019-02-10T04:01:15.864Z,-2.50
2019-02-10T04:03:44.255Z,-2.48
2019-02-10T04:06:12.514Z,-2.42
2019-02-10T04:08:40.847Z,-2.39
2019-02-10T04:11:09.096Z,-2.39
2019-02-10T04:13:37.359Z,-2.38
2019-02-10T04:16:05.659Z,-2.37
2019-02-10T04:18:33.981Z,-2.29
2019-02-10T04:21:02.281Z,-2.26
2019-02-10T04:23:31.228Z,-2.22
2019-02-10T04:25:59.534Z,-2.22
2019-02-10T04:28:27.795Z,-2.17
2019-02-10T04:30:56.059Z,-2.12
2019-02-10T04:33:24.359Z,-2.03
2019-02-10T04:35:52.643Z,-1.97
2019-02-10T04:38:20.937Z,-1.92
2019-02-10T04:40:49.195Z,-1.91
2019-02-10T04:43:17.481Z,-1.89
2019-02-10T04:45:45.750Z,-1.83
2019-02-10T04:48:14.040Z,-1.80
2019-02-10T04:50:42.385Z,-1.75
2019-02-10T04:53:10.691Z,-1.74
2019-02-10T04:55:38.946Z,-1.76
2019-02-10T04:58:07.229Z,-1.74
2019-02-10T05:00:35.529Z,-1.69
2019-02-10T05:03:03.815Z,-1.61
2019-02-10T05:05:32.079Z,-1.55
2019-02-10T05:08:00.371Z,-1.50
2019-02-10T05:10:28.650Z,-1.42
2019-02-10T05:12:56.915Z,-1.38
2019-02-10T05:15:25.187Z,-1.38
2019-02-10T05:17:53.469Z,-1.36
2019-02-10T05:20:21.751Z,-1.34
2019-02-10T05:22:50.029Z,-1.33
2019-02-10T05:25:18.317Z,-1.31
2019-02-10T05:27:46.645Z,-1.28
2019-02-10T05:30:14.917Z,-1.26
2019-02-10T05:32:43.177Z,-1.24
2019-02-10T05:35:11.468Z,-1.22
2019-02-10T05:37:39.764Z,-1.18
2019-02-10T05:40:08.041Z,-1.18
2019-02-10T05:42:36.298Z,-1.15
2019-02-10T05:45:06.248Z,-1.12
2019-02-10T05:47:34.501Z,-1.10
2019-02-10T05:50:02.819Z,-1.07
2019-02-10T05:52:31.080Z,-1.05
2019-02-10T05:54:59.347Z,-1.01
2019-02-10T05:57:27.640Z,-1.00
2019-02-10T05:59:55.903Z,-0.96
2019-02-10T06:02:28.583Z,-0.97
2019-02-10T06:04:57.221Z,-0.96
2019-02-10T06:07:25.484Z,-0.94
2019-02-10T06:09:53.773Z,-0.94
2019-02-10T06:12:22.109Z,-0.91
2019-02-10T06:14:50.378Z,-0.87
2019-02-10T06:17:18.631Z,-0.85
2019-02-10T06:19:46.906Z,-0.87
2019-02-10T06:22:15.165Z,-0.86
2019-02-10T06:24:43.440Z,-0.83
2019-02-10T06:27:11.708Z,-0.85
2019-02-10T06:29:40.023Z,-0.83
2019-02-10T06:32:08.269Z,-0.82
2019-02-10T06:34:36.539Z,-0.82
2019-02-10T06:37:04.818Z,-0.79
2019-02-10T06:39:33.095Z,-0.79
2019-02-10T06:42:01.387Z,-0.77
2019-02-10T06:44:29.651Z,-0.74
2019-02-10T06:46:57.933Z,-0.70
2019-02-10T06:49:26.183Z,-0.68
2019-02-10T06:51:54.458Z,-0.66
2019-02-10T06:54:22.727Z,-0.66
2019-02-10T06:56:51.038Z,-0.61
2019-02-10T06:59:23.566Z,-0.55
2019-02-10T07:01:56.489Z,-0.52
2019-02-10T07:04:24.786Z,-0.48
2019-02-10T07:06:53.048Z,-0.40
2019-02-10T07:09:23.016Z,-0.36
2019-02-10T07:11:51.272Z,-0.39
2019-02-10T07:14:28.711Z,-0.34
2019-02-10T07:17:15.343Z,-0.26
2019-02-10T07:20:20.039Z,-0.14
2019-02-10T07:22:51.553Z,0.01
2019-02-10T07:25:39.804Z,0.08
2019-02-10T07:28:11.321Z,0.13
2019-02-10T07:30:57.937Z,0.25
2019-02-10T07:33:50.936Z,0.35
2019-02-10T07:36:31.099Z,0.44
2019-02-10T07:39:14.607Z,0.51
2019-02-10T07:42:15.201Z,0.56
2019-02-10T07:45:01.842Z,0.65
2019-02-10T07:47:48.306Z,0.74
2019-02-10T07:50:28.676Z,0.75
2019-02-10T07:53:02.921Z,0.81
2019-02-10T07:55:58.543Z,0.91
2019-02-10T07:58:53.539Z,0.98
2019-02-10T08:01:25.122Z,1.06
2019-02-10T08:04:11.794Z,1.12
2019-02-10T08:06:46.081Z,1.19
2019-02-10T08:09:20.423Z,1.30
2019-02-10T08:11:51.977Z,1.30
2019-02-10T08:14:44.322Z,1.31
2019-02-10T08:17:32.250Z,1.33
2019-02-10T08:20:13.131Z,1.43
2019-02-10T08:22:50.795Z,1.58
2019-02-10T08:25:34.645Z,1.73
2019-02-10T08:28:12.167Z,1.82
2019-02-10T08:30:49.698Z,1.84
2019-02-10T08:33:24.153Z,1.86
2019-02-10T08:36:13.036Z,1.91
2019-02-10T08:38:54.283Z,1.96
2019-02-10T08:41:36.342Z,2.02
2019-02-10T08:44:23.726Z,2.08
2019-02-10T08:47:10.126Z,2.12
2019-02-10T08:49:58.084Z,2.13
2019-02-10T08:52:29.634Z,2.23
2019-02-10T08:54:58.761Z,2.43
2019-02-10T08:57:27.050Z,2.50
2019-02-10T08:59:55.308Z,2.58
2019-02-10T09:02:23.569Z,2.77
2019-02-10T09:04:51.863Z,2.93
2019-02-10T09:07:20.120Z,3.19
2019-02-10T09:09:48.406Z,3.37
2019-02-10T09:12:16.671Z,3.54
2019-02-10T09:14:44.949Z,3.63
2019-02-10T09:17:13.223Z,3.76
2019-02-10T09:19:41.507Z,3.94
2019-02-10T09:22:09.759Z,4.09
2019-02-10T09:24:39.326Z,4.16
2019-02-10T09:27:07.708Z,4.27
2019-02-10T09:29:35.968Z,4.32
2019-02-10T09:32:04.273Z,4.39
2019-02-10T09:34:32.526Z,4.41
2019-02-10T09:37:00.828Z,4.39
2019-02-10T09:39:29.079Z,4.48
2019-02-10T09:41:57.364Z,4.55
2019-02-10T09:44:25.621Z,4.65
2019-02-10T09:46:53.913Z,4.67
2019-02-10T09:49:22.178Z,4.72
2019-02-10T09:51:50.460Z,4.78
2019-02-10T09:54:18.722Z,4.55
2019-02-10T09:56:47.017Z,4.73
2019-02-10T09:59:15.274Z,4.90
2019-02-10T10:01:43.581Z,5.15
2019-02-10T10:04:11.843Z,5.56
2019-02-10T10:06:40.103Z,5.88
2019-02-10T10:09:08.383Z,6.22
2019-02-10T10:11:36.642Z,7.08
2019-02-10T10:14:04.913Z,7.48
2019-02-10T10:16:33.165Z,7.98
2019-02-10T10:19:01.435Z,8.29
2019-02-10T10:21:29.693Z,8.62
2019-02-10T10:23:57.975Z,8.59
2019-02-10T10:26:26.260Z,9.02
2019-02-10T10:28:54.519Z,9.72
2019-02-10T10:31:22.814Z,10.49
2019-02-10T10:33:51.103Z,11.38
2019-02-10T10:36:19.367Z,12.51
2019-02-10T10:38:47.682Z,13.54
2019-02-10T10:41:15.942Z,14.63
2019-02-10T10:43:44.209Z,15.44
2019-02-10T10:46:12.505Z,15.75
2019-02-10T10:48:40.767Z,16.55
2019-02-10T10:51:09.041Z,17.01
2019-02-10T10:53:37.333Z,17.41
2019-02-10T10:56:05.635Z,17.89
2019-02-10T10:58:33.894Z,18.52
2019-02-10T11:01:02.186Z,18.95
2019-02-10T11:03:30.446Z,19.32
2019-02-10T11:05:58.741Z,19.18
2019-02-10T11:08:27.022Z,19.07
2019-02-10T11:10:55.312Z,19.46
2019-02-10T11:13:23.580Z,19.51
2019-02-10T11:15:51.861Z,20.36
2019-02-10T11:18:20.158Z,20.74
2019-02-10T11:20:48.484Z,20.68
2019-02-10T11:23:16.776Z,19.38
2019-02-10T11:25:45.030Z,19.59
2019-02-10T11:28:14.038Z,20.00
2019-02-10T11:30:43.729Z,20.30
2019-02-10T11:33:12.041Z,20.05
2019-02-10T11:35:40.303Z,20.20
2019-02-10T11:38:08.601Z,20.80
2019-02-10T11:40:36.869Z,20.22
2019-02-10T11:43:05.135Z,19.99
2019-02-10T11:45:33.432Z,19.33
2019-02-10T11:48:01.700Z,19.72
2019-02-10T11:50:29.988Z,19.78
2019-02-10T11:52:58.237Z,19.59
2019-02-10T11:55:26.534Z,19.84
2019-02-10T11:57:54.826Z,19.65
2019-02-10T12:00:23.093Z,19.99
2019-02-10T12:02:51.381Z,20.29
2019-02-10T12:05:19.645Z,20.58
2019-02-10T12:07:47.922Z,19.87
2019-02-10T12:10:16.228Z,19.34
2019-02-10T12:12:44.494Z,18.33
2019-02-10T12:15:14.756Z,17.92
2019-02-10T12:17:43.044Z,17.54
2019-02-10T12:20:13.843Z,17.68
2019-02-10T12:22:49.653Z,18.21
2019-02-10T12:25:12.218Z,17.94
2019-02-10T12:27:40.533Z,18.03
2019-02-10T12:30:14.027Z,17.41
2019-02-10T12:32:42.285Z,17.36
2019-02-10T12:35:11.680Z,17.05
2019-02-10T12:37:39.970Z,16.62
2019-02-10T12:40:09.567Z,15.88
2019-02-10T12:42:37.869Z,15.15
2019-02-10T12:45:08.468Z,14.25
2019-02-10T12:47:36.751Z,13.73
2019-02-10T12:50:13.228Z,13.25
2019-02-10T12:52:41.577Z,13.08
2019-02-10T12:55:11.203Z,13.13
2019-02-10T12:57:39.471Z,13.14
2019-02-10T13:00:14.132Z,12.61
2019-02-10T13:02:42.414Z,12.44
2019-02-10T13:05:10.682Z,12.11
2019-02-10T13:07:38.950Z,12.13
2019-02-10T13:10:16.498Z,12.41
2019-02-10T13:12:44.870Z,12.51
2019-02-10T13:15:13.630Z,13.19
2019-02-10T13:17:41.903Z,13.47
2019-02-10T13:20:14.429Z,13.68
2019-02-10T13:22:42.690Z,13.56
2019-02-10T13:25:12.104Z,13.81
2019-02-10T13:27:40.391Z,14.15
2019-02-10T13:30:19.223Z,14.17
2019-02-10T13:32:47.496Z,14.17
2019-02-10T13:35:15.768Z,13.93
2019-02-10T13:37:44.042Z,13.57
2019-02-10T13:40:40.557Z,13.01
2019-02-10T13:43:08.862Z,12.75
2019-02-10T13:45:37.121Z,12.09
2019-02-10T13:48:05.426Z,11.53
2019-02-10T13:50:33.682Z,11.19
2019-02-10T13:53:01.986Z,10.80
2019-02-10T13:55:30.250Z,10.50
2019-02-10T13:57:58.515Z,10.29
2019-02-10T14:00:26.844Z,10.29
2019-02-10T14:02:55.104Z,10.21
2019-02-10T14:05:23.365Z,9.89
2019-02-10T14:07:51.658Z,9.69
2019-02-10T14:10:25.279Z,9.52
2019-02-10T14:12:49.925Z,9.27
2019-02-10T14:15:19.567Z,9.20
2019-02-10T14:17:47.830Z,9.05
2019-02-10T14:20:19.960Z,8.58
2019-02-10T14:22:48.249Z,8.37
2019-02-10T14:25:16.573Z,8.22
2019-02-10T14:27:44.828Z,8.06
2019-02-10T14:30:18.591Z,7.91
2019-02-10T14:32:46.898Z,7.83
2019-02-10T14:35:15.161Z,7.83
2019-02-10T14:37:43.446Z,7.70
2019-02-10T14:40:12.185Z,7.43
2019-02-10T14:42:40.441Z,7.21
2019-02-10T14:45:15.623Z,7.06
2019-02-10T14:47:43.885Z,6.74
2019-02-10T14:50:14.975Z,6.57
2019-02-10T14:52:43.229Z,6.45
2019-02-10T14:55:11.517Z,6.37
2019-02-10T14:57:39.805Z,6.36
2019-02-10T15:00:11.233Z,6.30
2019-02-10T15:02:39.489Z,6.13
2019-02-10T15:05:08.020Z,5.96
2019-02-10T15:07:36.319Z,5.91
2019-02-10T15:10:07.268Z,5.76
2019-02-10T15:12:35.541Z,5.48
2019-02-10T15:15:04.678Z,5.42
2019-02-10T15:17:32.968Z,5.32
2019-02-10T15:20:01.313Z,5.20
2019-02-10T15:22:29.577Z,5.03
2019-02-10T15:24:57.837Z,4.85
2019-02-10T15:27:26.134Z,4.73
2019-02-10T15:29:54.418Z,4.75
2019-02-10T15:32:22.676Z,4.75
2019-02-10T15:34:50.948Z,4.73
2019-02-10T15:37:19.247Z,4.73
2019-02-10T15:39:47.505Z,4.67
2019-02-10T15:42:15.790Z,4.62
2019-02-10T15:44:45.675Z,4.63
2019-02-10T15:47:14.126Z,4.57
2019-02-10T15:49:42.375Z,4.59
2019-02-10T15:52:10.632Z,4.55
2019-02-10T15:54:38.936Z,4.58
2019-02-10T15:57:07.194Z,4.56
2019-02-10T15:59:35.449Z,4.49
2019-02-10T16:02:03.741Z,4.32
2019-02-10T16:04:31.999Z,4.29
2019-02-10T16:07:00.268Z,4.29
2019-02-10T16:09:28.588Z,4.26
2019-02-10T16:11:56.859Z,4.27
2019-02-10T16:14:25.113Z,4.28
2019-02-10T16:16:53.405Z,4.17
2019-02-10T16:19:21.664Z,4.21
2019-02-10T16:21:49.958Z,4.25
2019-02-10T16:24:18.244Z,4.13
2019-02-10T16:26:46.527Z,4.08
2019-02-10T16:29:14.788Z,4.02
2019-02-10T16:31:43.075Z,4.01
2019-02-10T16:34:11.361Z,4.09
2019-02-10T16:36:39.619Z,4.05
2019-02-10T16:39:09.563Z,4.06
2019-02-10T16:41:37.819Z,4.06
2019-02-10T16:44:06.116Z,4.04
2019-02-10T16:46:36.193Z,3.98
2019-02-10T16:49:04.484Z,4.00
2019-02-10T16:51:32.788Z,3.98
2019-02-10T16:54:01.037Z,3.96
2019-02-10T16:56:29.327Z,3.94
2019-02-10T16:58:57.632Z,3.97
2019-02-10T17:01:25.882Z,3.96
2019-02-10T17:03:54.139Z,3.95
2019-02-10T17:06:22.419Z,3.95
2019-02-10T17:08:50.672Z,3.95
2019-02-10T17:11:18.956Z,3.92
2019-02-10T17:13:47.210Z,3.96
2019-02-10T17:16:15.498Z,4.01
2019-02-10T17:18:43.753Z,3.97
2019-02-10T17:21:12.010Z,3.95
2019-02-10T17:23:40.303Z,3.96
2019-02-10T17:26:08.629Z,3.94
2019-02-10T17:28:36.892Z,3.92
2019-02-10T17:31:05.153Z,3.90
2019-02-10T17:33:33.442Z,3.85
2019-02-10T17:36:01.706Z,3.90
2019-02-10T17:38:30.028Z,3.90
2019-02-10T17:41:04.660Z,3.88
2019-02-10T17:43:32.956Z,3.81
2019-02-10T17:46:01.219Z,3.74
2019-02-10T17:48:29.477Z,3.70
2019-02-10T17:50:57.838Z,3.70
2019-02-10T17:53:26.198Z,3.63
2019-02-10T17:55:54.463Z,3.58
2019-02-10T17:58:22.748Z,3.54
2019-02-10T18:00:51.673Z,3.52
2019-02-10T18:03:19.958Z,3.51
2019-02-10T18:05:48.269Z,3.47
2019-02-10T18:08:16.528Z,3.45
2019-02-10T18:10:44.793Z,3.39
2019-02-10T18:13:13.081Z,3.29
2019-02-10T18:15:45.763Z,3.32
2019-02-10T18:18:24.212Z,3.34
2019-02-10T18:21:10.355Z,3.30
2019-02-10T18:23:49.485Z,3.28
2019-02-10T18:26:19.417Z,3.27
2019-02-10T18:28:52.006Z,3.26
2019-02-10T18:31:28.157Z,3.27
2019-02-10T18:34:00.718Z,3.27
2019-02-10T18:36:33.412Z,3.28
2019-02-10T18:39:21.776Z,3.29
2019-02-10T18:41:57.970Z,3.32
2019-02-10T18:44:42.814Z,3.31
2019-02-10T18:47:21.408Z,3.29
2019-02-10T18:49:57.041Z,3.33
2019-02-10T18:52:29.401Z,3.29
2019-02-10T18:55:15.464Z,3.26
2019-02-10T18:57:45.356Z,3.28
2019-02-10T19:00:23.877Z,3.32
2019-02-10T19:02:59.760Z,3.32
2019-02-10T19:05:29.695Z,3.25
2019-02-10T19:08:11.691Z,3.25
2019-02-10T19:10:44.584Z,3.30
2019-02-10T19:13:16.904Z,3.33
2019-02-10T19:16:01.838Z,3.37
2019-02-10T19:18:43.834Z,3.40
2019-02-10T19:21:13.729Z,3.44
2019-02-10T19:23:43.895Z,3.47
2019-02-10T19:26:16.510Z,3.53
2019-02-10T19:28:52.420Z,3.52
2019-02-10T19:31:22.322Z,3.51
2019-02-10T19:33:52.274Z,3.53
2019-02-10T19:36:40.197Z,3.54
2019-02-10T19:39:16.086Z,3.54
2019-02-10T19:41:55.843Z,3.55
2019-02-10T19:44:25.828Z,3.51
2019-02-10T19:47:01.309Z,3.54
2019-02-10T19:49:31.240Z,3.59
2019-02-10T19:52:01.166Z,3.61
2019-02-10T19:54:33.606Z,3.60
2019-02-10T19:57:03.540Z,3.63
2019-02-10T19:59:48.549Z,3.63
2019-02-10T20:02:24.384Z,3.57
2019-02-10T20:05:00.256Z,3.56
2019-02-10T20:07:42.443Z,3.56
2019-02-10T20:10:30.511Z,3.58
2019-02-10T20:13:18.678Z,3.61
2019-02-10T20:15:51.182Z,3.60
2019-02-10T20:18:29.824Z,3.52
2019-02-10T20:21:02.221Z,3.52
2019-02-10T20:23:40.960Z,3.49
2019-02-10T20:26:16.661Z,3.49
2019-02-10T20:29:04.418Z,3.54
2019-02-10T20:31:43.486Z,3.59
2019-02-10T20:34:31.799Z,3.58
2019-02-10T20:37:16.924Z,3.61
2019-02-10T20:39:58.824Z,3.63
2019-02-10T20:42:31.621Z,3.63
2019-02-10T20:45:01.524Z,3.64
2019-02-10T20:47:34.129Z,3.62
2019-02-10T20:50:15.573Z,3.58
2019-02-10T20:52:46.508Z,3.58
2019-02-10T20:55:16.594Z,3.61
2019-02-10T20:57:46.528Z,3.58
2019-02-10T21:00:25.194Z,3.47
2019-02-10T21:02:55.119Z,3.49
2019-02-10T21:05:40.917Z,3.52
2019-02-10T21:08:10.843Z,3.54
2019-02-10T21:10:50.496Z,3.56
2019-02-10T21:13:26.513Z,3.53
2019-02-10T21:16:12.871Z,3.47
2019-02-10T21:18:42.779Z,3.44
2019-02-10T21:21:12.675Z,3.44
2019-02-10T21:23:45.292Z,3.49
2019-02-10T21:26:21.018Z,3.51
2019-02-10T21:28:50.933Z,3.49
2019-02-10T21:31:20.828Z,3.59
2019-02-10T21:33:53.475Z,3.67
2019-02-10T21:36:29.497Z,3.68
2019-02-10T21:39:14.566Z,3.68
2019-02-10T21:41:44.475Z,3.69
2019-02-10T21:44:23.478Z,3.73
2019-02-10T21:46:53.373Z,3.74
2019-02-10T21:49:21.915Z,3.75
2019-02-10T21:51:50.193Z,3.81
2019-02-10T21:54:18.566Z,3.84
2019-02-10T21:56:46.820Z,3.82
2019-02-10T21:59:15.076Z,3.81
2019-02-10T22:01:43.374Z,3.80
2019-02-10T22:04:12.314Z,3.78
2019-02-10T22:06:40.570Z,3.83
2019-02-10T22:09:08.833Z,3.88
2019-02-10T22:11:37.129Z,3.88
2019-02-10T22:14:05.454Z,3.88
2019-02-10T22:16:33.715Z,3.90
2019-02-10T22:19:01.966Z,3.92
2019-02-10T22:21:30.255Z,3.96
2019-02-10T22:23:58.580Z,3.93
2019-02-10T22:26:26.870Z,3.97
2019-02-10T22:28:55.396Z,4.00
2019-02-10T22:31:23.650Z,3.99
2019-02-10T22:33:51.905Z,3.98
2019-02-10T22:36:20.167Z,4.02
2019-02-10T22:38:48.423Z,3.99
2019-02-10T22:41:16.749Z,3.98
2019-02-10T22:43:45.006Z,4.03
2019-02-10T22:46:13.305Z,4.06
2019-02-10T22:48:41.557Z,4.09
2019-02-10T22:51:10.192Z,4.05
2019-02-10T22:53:38.556Z,4.10
2019-02-10T22:56:06.811Z,4.13
2019-02-10T22:58:35.098Z,4.14
2019-02-10T23:01:04.076Z,4.18
2019-02-10T23:03:32.423Z,4.17
2019-02-10T23:06:00.671Z,4.17
2019-02-10T23:08:28.932Z,4.16
2019-02-10T23:10:57.267Z,4.16
2019-02-10T23:13:25.582Z,4.18
2019-02-10T23:15:53.842Z,4.22
2019-02-10T23:18:22.116Z,4.22
2019-02-10T23:20:50.413Z,4.20
2019-02-10T23:23:18.834Z,4.15
2019-02-10T23:25:47.090Z,4.18
2019-02-10T23:28:15.363Z,4.22
2019-02-10T23:30:43.645Z,4.22
2019-02-10T23:33:12.012Z,4.21
2019-02-10T23:35:40.299Z,4.25
2019-02-10T23:38:08.590Z,4.26
2019-02-10T23:40:36.876Z,4.27
2019-02-10T23:43:05.202Z,4.26
2019-02-10T23:45:33.491Z,4.29
2019-02-10T23:48:01.752Z,4.29
2019-02-10T23:50:30.002Z,4.27
2019-02-10T23:52:58.331Z,4.25
2019-02-10T23:55:26.601Z,4.26
2019-02-10T23:57:54.855Z,4.27
